Time;durP1;ratioP1;P1;durP2;ratioP2;P2;SDS_P1;SDS_P2;PMS_P1;PMS_P2;Temp;Humidity;BMP_temperature;BMP_pressure;BME280_temperature;BME280_humidity;BME280_pressure;Samples;Min_cycle;Max_cycle;Signal;HPM_P1;HPM_P2
2022/10/07 00:00:09;;;;;;;4.82;2.60;;;;;;;;;;5147537;28;20060;-57
2022/10/07 00:02:51;;;;;;;2.80;1.67;;;;;;;;;;5147246;28;20023;-57
2022/10/07 00:05:24;;;;;;;4.20;1.67;;;;;;;;;;5129534;27;20094;-56
2022/10/07 00:08:13;;;;;;;4.68;1.80;;;;;;;;;;5132403;27;20042;-57
2022/10/07 00:14:13;;;;;;;4.13;2.90;;;;;;;;;;5091873;27;20181;-58
2022/10/07 00:16:51;;;;;;;3.42;2.00;;;;;;;;;;5150815;27;20468;-57
2022/10/07 00:19:45;;;;;;;5.28;2.10;;;;;;;;;;5131167;27;20046;-57
2022/10/07 00:22:21;;;;;;;5.80;2.72;;;;;;;;;;5151474;27;20019;-57
2022/10/07 00:31:16;;;;;;;5.05;1.95;;;;;;;;;;5067973;28;20407;-57
2022/10/07 00:34:03;;;;;;;5.45;2.33;;;;;;;;;;5151045;27;20030;-57
2022/10/07 00:36:38;;;;;;;6.10;1.70;;;;;;;;;;5151786;27;20046;-58
2022/10/07 00:39:20;;;;;;;2.72;2.22;;;;;;;;;;5151796;27;20027;-57
2022/10/07 00:42:07;;;;;;;5.53;2.75;;;;;;;;;;5151330;27;20061;-58
2022/10/07 00:44:56;;;;;;;4.00;1.90;;;;;;;;;;5133614;27;20053;-56
2022/10/07 00:47:44;;;;;;;;;;;;;;;;;;;;;
2022/10/07 00:53:47;;;;;;;3.47;2.38;;;;;;;;;;5048047;28;20040;-57
2022/10/07 00:59:27;;;;;;;4.10;1.48;;;;;;;;;;5047712;28;20088;-57
2022/10/07 01:02:11;;;;;;;5.13;2.10;;;;;;;;;;5120384;27;20027;-57
2022/10/07 01:08:11;;;;;;;8.35;3.05;;;;;;;;;;5151165;27;20043;-58
2022/10/07 01:10:59;;;;;;;6.38;2.45;;;;;;;;;;5150907;27;20020;-57
2022/10/07 01:14:06;;;;;;;5.10;1.73;;;;;;;;;;5131029;27;20042;-58
2022/10/07 01:20:17;;;;;;;;;;;;;;;;;;;;;
2022/10/07 01:23:11;;;;;;;5.93;2.20;;;;;;;;;;5007591;28;20069;-57
2022/10/07 01:26:07;;;;;;;4.75;2.65;;;;;;;;;;5007347;28;20022;-57
2022/10/07 01:31:57;;;;;;;7.85;2.03;;;;;;;;;;4971581;28;20058;-57
2022/10/07 01:34:41;;;;;;;2.15;1.50;;;;;;;;;;4988136;28;20136;-57
2022/10/07 01:40:27;;;;;;;4.13;2.58;;;;;;;;;;4987268;28;20042;-57
2022/10/07 01:43:06;;;;;;;3.20;1.88;;;;;;;;;;4988212;28;20129;-57
2022/10/07 01:58:19;;;;;;;10.18;2.78;;;;;;;;;;5036291;28;20037;-57
2022/10/07 02:04:18;;;;;;;4.15;2.03;;;;;;;;;;4987565;28;20035;-57
2022/10/07 02:07:06;;;;;;;4.28;2.83;;;;;;;;;;5026821;28;20487;-57
2022/10/07 02:09:50;;;;;;;3.35;2.30;;;;;;;;;;5025111;28;20058;-57
2022/10/07 02:12:42;;;;;;;6.55;1.90;;;;;;;;;;5026734;28;20034;-57
2022/10/07 02:15:39;;;;;;;4.85;2.38;;;;;;;;;;5027272;28;20097;-57
2022/10/07 02:18:20;;;;;;;2.97;2.20;;;;;;;;;;5049866;28;20115;-58
2022/10/07 02:24:02;;;;;;;6.75;1.83;;;;;;;;;;5102341;28;20034;-58
2022/10/07 02:30:07;;;;;;;6.60;2.63;;;;;;;;;;5041544;28;20026;-58
2022/10/07 02:36:01;;;;;;;5.38;2.85;;;;;;;;;;5031078;28;20039;-58
2022/10/07 02:39:00;;;;;;;3.58;1.77;;;;;;;;;;5021522;28;20056;-58
2022/10/07 02:48:00;;;;;;;4.75;2.15;;;;;;;;;;5036102;28;20504;-57
2022/10/07 02:50:51;;;;;;;;;;;;;;;;;;;;;
2022/10/07 02:56:18;;;;;;;4.07;2.22;;;;;;;;;;5124325;28;20042;-58
2022/10/07 02:58:54;;;;;;;4.30;2.45;;;;;;;;;;5104563;28;20046;-58
2022/10/07 03:04:20;;;;;;;3.70;2.65;;;;;;;;;;5123586;28;20081;-58
2022/10/07 03:07:12;;;;;;;3.85;2.45;;;;;;;;;;5102098;28;20032;-57
2022/10/07 03:12:50;;;;;;;7.68;2.45;;;;;;;;;;5122945;28;20027;-58
2022/10/07 03:15:30;;;;;;;;;;;;;;;;;;;;;
2022/10/07 03:21:39;;;;;;;6.18;2.45;;;;;;;;;;5127840;28;20032;-56
2022/10/07 03:24:07;;;;;;;;;;;;;;;;;;5128290;28;20050;-57
2022/10/07 03:26:42;;;;;;;4.88;2.15;;;;;;;;;;5127277;28;19932;-58
2022/10/07 03:29:38;;;;;;;3.53;2.28;;;;;;;;;;5128383;28;20027;-57
2022/10/07 03:35:51;;;;;;;;;;;;;;;;;;;;;
2022/10/07 03:38:23;;;;;;;3.17;2.30;;;;;;;;;;5115705;28;20118;-56
2022/10/07 03:41:03;;;;;;;4.32;2.50;;;;;;;;;;5091298;28;20063;-56
2022/10/07 03:43:48;;;;;;;8.40;2.28;;;;;;;;;;5074070;28;20127;-57
2022/10/07 03:46:36;;;;;;;;;;;;;;;;;;;;;
2022/10/07 03:49:12;;;;;;;;;;;;;;;;;;;;;
2022/10/07 03:55:02;;;;;;;6.78;2.92;;;;;;;;;;5032098;28;20112;-56
2022/10/07 03:58:02;;;;;;;2.95;2.08;;;;;;;;;;5032602;28;20530;-56
2022/10/07 04:00:28;;;;;;;6.10;3.00;;;;;;;;;;5075203;28;20523;-56
2022/10/07 04:03:06;;;;;;;7.50;2.67;;;;;;;;;;5092229;28;20036;-54
2022/10/07 04:05:37;;;;;;;5.78;2.72;;;;;;;;;;5092278;28;20459;-54
2022/10/07 04:08:31;;;;;;;;;;;;;;;;;;;;;
2022/10/07 04:17:17;;;;;;;3.92;2.17;;;;;;;;;;5117656;28;20372;-57
2022/10/07 04:20:14;;;;;;;6.88;2.85;;;;;;;;;;5133658;28;20092;-56
2022/10/07 04:25:57;;;;;;;6.30;3.10;;;;;;;;;;5092556;28;20035;-57
2022/10/07 04:29:02;;;;;;;7.72;3.13;;;;;;;;;;5092932;28;20039;-55
2022/10/07 04:31:47;;;;;;;;;;;;;;;;;;;;;
2022/10/07 04:41:13;;;;;;;4.53;2.90;;;;;;;;;;5091065;28;20136;-57
2022/10/07 04:43:46;;;;;;;3.90;2.20;;;;;;;;;;4991772;28;20435;-56
2022/10/07 04:46:38;;;;;;;7.70;5.10;;;;;;;;;;5058802;28;20032;-57
2022/10/07 04:49:15;;;;;;;9.15;3.58;;;;;;;;;;5091862;28;20497;-56
2022/10/07 04:58:06;;;;;;;5.15;2.72;;;;;;;;;;5131720;27;20070;-57
2022/10/07 05:00:43;;;;;;;6.28;2.38;;;;;;;;;;5138704;27;20456;-56
2022/10/07 05:03:24;;;;;;;7.78;2.17;;;;;;;;;;5131458;27;20105;-56
2022/10/07 05:05:57;;;;;;;5.63;3.35;;;;;;;;;;5138104;27;20027;-57
2022/10/07 05:15:06;;;;;;;6.88;2.45;;;;;;;;;;5045947;28;20067;-57
2022/10/07 05:18:06;;;;;;;6.22;2.33;;;;;;;;;;5074504;28;20037;-57
2022/10/07 05:20:38;;;;;;;;;;;;;;;;;;5052529;28;20040;-56
2022/10/07 05:26:35;;;;;;;6.07;2.70;;;;;;;;;;5050828;28;20034;-57
2022/10/07 05:29:27;;;;;;;5.20;3.50;;;;;;;;;;5057154;28;20045;-56
2022/10/07 05:32:14;;;;;;;3.63;2.70;;;;;;;;;;5074912;28;20037;-56
2022/10/07 05:38:01;;;;;;;9.70;3.03;;;;;;;;;;5127791;27;20045;-57
2022/10/07 05:40:45;;;;;;;7.05;2.80;;;;;;;;;;5119260;27;20422;-57
2022/10/07 05:43:27;;;;;;;5.50;2.72;;;;;;;;;;5135806;27;20118;-57
2022/10/07 05:46:27;;;;;;;4.07;2.75;;;;;;;;;;5137153;27;20043;-57
2022/10/07 05:49:12;;;;;;;5.35;2.40;;;;;;;;;;5126500;27;20043;-57
2022/10/07 05:51:59;;;;;;;3.95;2.80;;;;;;;;;;5137562;27;20027;-56
2022/10/07 06:00:41;;;;;;;9.13;3.47;;;;;;;;;;5053483;28;20029;-57
2022/10/07 06:03:10;;;;;;;5.00;3.28;;;;;;;;;;5072800;28;20044;-58
2022/10/07 06:06:06;;;;;;;4.93;3.17;;;;;;;;;;5072545;28;20037;-58
2022/10/07 06:08:37;;;;;;;5.70;2.58;;;;;;;;;;5067109;28;20047;-56
2022/10/07 06:14:11;;;;;;;6.82;3.47;;;;;;;;;;5132216;27;20042;-57
2022/10/07 06:16:58;;;;;;;7.75;2.35;;;;;;;;;;5117627;27;20019;-57
2022/10/07 06:19:35;;;;;;;12.13;3.47;;;;;;;;;;5136389;27;20487;-57
2022/10/07 06:22:22;;;;;;;8.98;3.83;;;;;;;;;;5137106;27;20098;-57
2022/10/07 06:25:01;;;;;;;3.90;2.83;;;;;;;;;;5136100;27;20027;-57
2022/10/07 06:27:55;;;;;;;6.38;3.88;;;;;;;;;;5117761;27;20092;-57
2022/10/07 06:30:37;;;;;;;9.18;4.13;;;;;;;;;;5117624;27;20464;-58
2022/10/07 06:36:42;;;;;;;;;;;;;;;;;;;;;
2022/10/07 06:39:48;;;;;;;5.70;4.22;;;;;;;;;;5106134;27;20031;-57
2022/10/07 06:42:55;;;;;;;8.52;4.38;;;;;;;;;;5131371;27;20031;-59
2022/10/07 06:48:32;;;;;;;4.72;3.00;;;;;;;;;;5136038;27;20054;-58
2022/10/07 06:51:20;;;;;;;6.20;3.28;;;;;;;;;;5135801;27;20114;-58
2022/10/07 06:54:07;;;;;;;10.50;3.92;;;;;;;;;;5134178;27;20088;-57
2022/10/07 06:59:50;;;;;;;8.85;3.80;;;;;;;;;;5103195;27;20035;-57
2022/10/07 07:02:39;;;;;;;;;;;;;;;;;;;;;
2022/10/07 07:05:18;;;;;;;7.18;4.53;;;;;;;;;;5135005;27;20478;-58
2022/10/07 07:08:04;;;;;;;9.63;3.90;;;;;;;;;;5134821;27;20041;-57
2022/10/07 07:11:01;;;;;;;7.28;3.80;;;;;;;;;;5132877;27;20143;-56
2022/10/07 07:13:34;;;;;;;8.07;4.35;;;;;;;;;;5136224;27;20500;-57
2022/10/07 07:16:23;;;;;;;6.85;4.45;;;;;;;;;;5090585;28;20040;-57
2022/10/07 07:28:52;;;;;;;;;;;;;;;;;;;;;
2022/10/07 07:31:27;;;;;;;5.03;3.75;;;;;;;;;;5046763;28;20033;-57
2022/10/07 07:34:12;;;;;;;5.28;3.88;;;;;;;;;;5050042;28;20041;-57
2022/10/07 07:36:50;;;;;;;6.47;4.97;;;;;;;;;;5037538;28;20463;-57
2022/10/07 07:39:26;;;;;;;11.45;4.97;;;;;;;;;;5059674;28;20036;-57
2022/10/07 07:42:09;;;;;;;5.82;4.32;;;;;;;;;;5092045;28;20032;-54
2022/10/07 07:44:54;;;;;;;6.70;4.63;;;;;;;;;;5069605;28;20037;-57
2022/10/07 07:47:51;;;;;;;;;;;;;;;;;;;;;
2022/10/07 07:50:40;;;;;;;;;;;;;;;;;;;;;
2022/10/07 08:04:45;;;;;;;8.50;4.20;;;;;;;;;;5114487;28;20031;-58
2022/10/07 08:07:20;;;;;;;5.05;3.55;;;;;;;;;;5095883;28;20035;-58
2022/10/07 08:10:10;;;;;;;11.15;3.60;;;;;;;;;;5113921;28;20028;-58
2022/10/07 08:13:13;;;;;;;5.07;3.67;;;;;;;;;;5102227;28;20032;-55
2022/10/07 08:21:39;;;;;;;4.95;3.13;;;;;;;;;;5052342;28;20048;-56
2022/10/07 08:24:46;;;;;;;8.25;3.15;;;;;;;;;;5052488;28;20463;-55
2022/10/07 08:30:23;;;;;;;;;;;;;;;;;;;;;
2022/10/07 08:33:01;;;;;;;4.47;3.17;;;;;;;;;;5019000;28;20041;-60
2022/10/07 08:35:44;;;;;;;5.55;3.53;;;;;;;;;;5054930;28;20039;-58
2022/10/07 08:38:29;;;;;;;3.35;3.05;;;;;;;;;;5038196;28;20041;-57
2022/10/07 08:41:08;;;;;;;5.32;3.55;;;;;;;;;;5055594;28;20056;-57
2022/10/07 08:43:53;;;;;;;6.35;3.78;;;;;;;;;;5055100;28;20085;-58
2022/10/07 08:46:43;;;;;;;4.00;2.95;;;;;;;;;;5072048;28;20045;-57
2022/10/07 08:52:36;;;;;;;4.25;2.95;;;;;;;;;;5093425;28;20031;-58
2022/10/07 08:55:05;;;;;;;7.05;3.60;;;;;;;;;;5099023;28;20030;-57
2022/10/07 08:58:03;;;;;;;5.03;3.83;;;;;;;;;;5118648;28;20042;-58
2022/10/07 09:00:57;;;;;;;8.00;5.00;;;;;;;;;;5116767;28;20365;-58
2022/10/07 09:10:11;;;;;;;3.95;3.00;;;;;;;;;;5059937;28;20029;-57
2022/10/07 09:12:59;;;;;;;6.22;2.78;;;;;;;;;;5116157;28;20484;-57
2022/10/07 09:19:03;;;;;;;8.35;3.22;;;;;;;;;;5113748;28;20038;-57
2022/10/07 09:21:56;;;;;;;6.70;3.25;;;;;;;;;;5116994;28;20065;-58
2022/10/07 09:25:01;;;;;;;5.82;4.20;;;;;;;;;;5099121;28;20042;-57
2022/10/07 09:27:55;;;;;;;;;;;;;;;;;;;;;
2022/10/07 09:30:38;;;;;;;5.20;3.90;;;;;;;;;;5116908;28;20028;-58
2022/10/07 09:33:29;;;;;;;3.83;3.15;;;;;;;;;;5116890;28;20016;-58
2022/10/07 09:36:34;;;;;;;5.18;3.38;;;;;;;;;;5097986;28;20075;-57
2022/10/07 09:40:02;;;;;;;;;;;;;;;;;;;;;
2022/10/07 09:43:00;;;;;;;;;;;;;;;;;;;;;
2022/10/07 09:45:44;;;;;;;;;;;;;;;;;;;;;
2022/10/07 09:48:54;;;;;;;5.53;4.15;;;;;;;;;;5114224;28;20518;-58
2022/10/07 09:51:54;;;;;;;5.77;4.17;;;;;;;;;;5053488;28;20501;-56
2022/10/07 09:54:56;;;;;;;5.32;4.35;;;;;;;;;;5097764;28;20261;-58
2022/10/07 09:57:52;;;;;;;13.00;4.60;;;;;;;;;;4975441;28;20396;-58
2022/10/07 10:03:52;;;;;;;6.10;4.45;;;;;;;;;;5043710;28;20029;-58
2022/10/07 10:06:34;;;;;;;;;;;;;;;;;;;;;
2022/10/07 10:09:15;;;;;;;5.50;4.15;;;;;;;;;;5115916;28;20123;-58
2022/10/07 10:12:12;;;;;;;7.60;4.30;;;;;;;;;;5098294;28;20365;-58
2022/10/07 10:18:42;;;;;;;;;;;;;;;;;;;;;
2022/10/07 10:27:56;;;;;;;9.73;5.50;;;;;;;;;;4990786;28;20040;-57
2022/10/07 10:34:08;;;;;;;6.97;4.38;;;;;;;;;;5112595;28;20058;-58
2022/10/07 10:37:06;;;;;;;8.75;4.72;;;;;;;;;;5056955;28;20035;-58
2022/10/07 10:39:56;;;;;;;6.22;3.55;;;;;;;;;;5066894;28;20046;-58
2022/10/07 10:42:34;;;;;;;5.65;3.47;;;;;;;;;;5115356;28;20123;-58
2022/10/07 10:49:09;;;;;;;5.93;5.25;;;;;;;;;;5089862;28;20138;-58
2022/10/07 10:51:31;;;;;;;6.25;5.20;;;;;;;;;;5081678;28;20036;-58
2022/10/07 10:57:30;;;;;;;5.20;4.30;;;;;;;;;;5093453;28;20504;-58
2022/10/07 11:00:16;;;;;;;9.57;5.55;;;;;;;;;;5091011;28;20048;-59
2022/10/07 11:03:00;;;;;;;8.77;5.72;;;;;;;;;;5093563;28;20111;-59
2022/10/07 11:06:04;;;;;;;6.00;4.53;;;;;;;;;;5092986;28;20031;-59
2022/10/07 11:08:51;;;;;;;7.03;4.88;;;;;;;;;;5092831;28;20032;-59
2022/10/07 11:11:26;;;;;;;6.55;4.97;;;;;;;;;;5076694;28;20117;-59
2022/10/07 11:13:58;;;;;;;7.65;5.30;;;;;;;;;;5093551;28;20058;-59
2022/10/07 11:16:44;;;;;;;7.93;5.68;;;;;;;;;;5076112;28;20039;-58
2022/10/07 11:19:54;;;;;;;7.35;5.28;;;;;;;;;;5076821;28;20024;-58
2022/10/07 11:22:31;;;;;;;6.40;4.85;;;;;;;;;;5068068;28;20027;-59
2022/10/07 11:28:27;;;;;;;6.97;5.00;;;;;;;;;;5123787;28;20375;-59
2022/10/07 11:31:43;;;;;;;;;;;;;;;;;;;;;
2022/10/07 11:34:50;;;;;;;10.60;6.57;;;;;;;;;;5012490;28;20122;-58
2022/10/07 11:37:39;;;;;;;8.95;5.60;;;;;;;;;;4986150;28;20030;-58
2022/10/07 11:40:32;;;;;;;7.65;5.18;;;;;;;;;;4978748;28;20034;-59
2022/10/07 11:49:24;;;;;;;7.18;5.60;;;;;;;;;;5004453;28;20097;-58
2022/10/07 11:52:04;;;;;;;5.32;4.65;;;;;;;;;;5003938;28;20038;-59
2022/10/07 11:54:58;;;;;;;6.13;4.67;;;;;;;;;;4984407;28;20027;-58
2022/10/07 12:00:40;;;;;;;5.85;5.22;;;;;;;;;;5003824;28;20065;-59
2022/10/07 12:03:30;;;;;;;6.45;5.20;;;;;;;;;;5030242;28;20117;-58
2022/10/07 12:09:35;;;;;;;5.65;5.05;;;;;;;;;;5029368;28;20072;-58
2022/10/07 12:12:15;;;;;;;;;;;;;;;;;;;;;
2022/10/07 12:14:59;;;;;;;5.30;4.73;;;;;;;;;;5025930;28;20097;-59
2022/10/07 12:17:57;;;;;;;7.40;5.38;;;;;;;;;;5045581;28;20021;-59
2022/10/07 12:20:54;;;;;;;11.05;5.75;;;;;;;;;;5028751;28;20041;-59
2022/10/07 12:23:53;;;;;;;7.35;5.38;;;;;;;;;;5046066;28;20017;-58
2022/10/07 12:30:08;;;;;;;7.95;5.40;;;;;;;;;;5117871;28;20097;-59
2022/10/07 12:33:05;;;;;;;;;;;;;;;;;;;;;
2022/10/07 12:35:47;;;;;;;;;;;;;;;;;;;;;
2022/10/07 12:38:45;;;;;;;6.28;5.20;;;;;;;;;;5118489;28;20034;-59
2022/10/07 12:44:35;;;;;;;8.10;5.03;;;;;;;;;;5118121;28;20055;-58
2022/10/07 12:53:36;;;;;;;7.03;4.55;;;;;;;;;;5026325;28;20029;-59
2022/10/07 12:56:19;;;;;;;6.85;4.97;;;;;;;;;;5035310;28;20026;-58
2022/10/07 13:01:54;;;;;;;7.40;4.68;;;;;;;;;;5034718;28;20041;-58
2022/10/07 13:04:54;;;;;;;7.15;4.53;;;;;;;;;;5029414;28;20072;-58
2022/10/07 13:07:57;;;;;;;4.43;4.03;;;;;;;;;;5035181;28;20406;-58
2022/10/07 13:10:43;;;;;;;7.22;4.93;;;;;;;;;;5034849;28;20022;-59
2022/10/07 13:13:36;;;;;;;5.65;4.53;;;;;;;;;;5026024;28;20041;-59
2022/10/07 13:16:22;;;;;;;4.80;4.32;;;;;;;;;;5033602;28;20542;-59
2022/10/07 13:19:07;;;;;;;7.30;4.13;;;;;;;;;;5131167;27;20042;-59
2022/10/07 13:22:02;;;;;;;7.80;5.13;;;;;;;;;;5121576;27;20041;-57
2022/10/07 13:24:56;;;;;;;4.45;3.95;;;;;;;;;;5119897;27;20539;-57
2022/10/07 13:31:07;;;;;;;5.22;4.50;;;;;;;;;;5136809;27;20114;-58
2022/10/07 13:34:11;;;;;;;6.72;4.60;;;;;;;;;;5137219;27;20031;-58
2022/10/07 13:36:44;;;;;;;8.45;4.60;;;;;;;;;;5137683;27;20027;-58
2022/10/07 13:39:30;;;;;;;4.85;4.25;;;;;;;;;;5138484;27;20324;-57
2022/10/07 13:42:24;;;;;;;6.10;4.82;;;;;;;;;;5135044;27;20031;-58
2022/10/07 13:44:53;;;;;;;9.35;4.45;;;;;;;;;;5117724;27;20050;-57
2022/10/07 13:47:41;;;;;;;6.05;4.38;;;;;;;;;;5135358;27;20035;-58
2022/10/07 13:50:38;;;;;;;6.18;4.82;;;;;;;;;;5137293;27;20034;-58
2022/10/07 13:53:33;;;;;;;;;;;;;;;;;;;;;
2022/10/07 13:56:18;;;;;;;5.32;4.35;;;;;;;;;;5132592;27;20091;-58
2022/10/07 14:02:19;;;;;;;10.00;4.53;;;;;;;;;;5034220;28;20032;-58
2022/10/07 14:05:04;;;;;;;4.70;4.18;;;;;;;;;;5113148;27;20035;-58
2022/10/07 14:07:53;;;;;;;8.70;5.20;;;;;;;;;;5137540;27;20106;-58
2022/10/07 14:10:58;;;;;;;5.75;4.32;;;;;;;;;;5080070;27;20118;-58
2022/10/07 14:16:57;;;;;;;7.28;4.35;;;;;;;;;;5033476;28;20576;-57
2022/10/07 14:19:58;;;;;;;;;;;;;;;;;;;;;
2022/10/07 14:22:57;;;;;;;;;;;;;;;;;;;;;
2022/10/07 14:25:53;;;;;;;4.90;3.97;;;;;;;;;;5081246;27;20031;-57
2022/10/07 14:28:34;;;;;;;6.40;4.80;;;;;;;;;;5116454;27;20572;-58
2022/10/07 14:37:20;;;;;;;7.22;4.30;;;;;;;;;;5136027;27;20027;-58
2022/10/07 14:43:17;;;;;;;4.60;4.05;;;;;;;;;;5096220;27;20034;-58
2022/10/07 14:48:54;;;;;;;5.60;4.60;;;;;;;;;;5135252;27;20051;-58
2022/10/07 14:52:14;;;;;;;;;;;;;;;;;;;;;
2022/10/07 14:55:18;;;;;;;6.60;3.35;;;;;;;;;;5029787;28;20063;-58
2022/10/07 14:58:16;;;;;;;4.18;3.72;;;;;;;;;;5032799;28;20053;-58
2022/10/07 15:01:10;;;;;;;4.72;3.95;;;;;;;;;;5135309;27;20042;-57
2022/10/07 15:06:44;;;;;;;6.03;4.65;;;;;;;;;;5103173;27;20487;-58
2022/10/07 15:15:53;;;;;;;6.10;4.13;;;;;;;;;;5135514;27;20114;-58
2022/10/07 15:21:25;;;;;;;4.85;4.05;;;;;;;;;;5111718;27;20430;-60
2022/10/07 15:24:21;;;;;;;6.88;4.35;;;;;;;;;;5131681;27;20495;-58
2022/10/07 15:26:50;;;;;;;6.88;4.65;;;;;;;;;;5119409;27;20052;-58
2022/10/07 15:29:40;;;;;;;6.25;4.70;;;;;;;;;;5143090;27;20372;-58
2022/10/07 15:32:16;;;;;;;5.22;4.20;;;;;;;;;;5129580;27;20491;-58
2022/10/07 15:37:44;;;;;;;7.32;3.63;;;;;;;;;;5136827;27;20077;-58
2022/10/07 15:40:23;;;;;;;5.45;4.38;;;;;;;;;;5142470;27;20069;-58
2022/10/07 15:46:12;;;;;;;4.55;3.63;;;;;;;;;;5058264;28;20087;-58
2022/10/07 15:49:20;;;;;;;4.65;3.95;;;;;;;;;;5067837;28;20078;-58
2022/10/07 15:52:05;;;;;;;4.97;4.50;;;;;;;;;;5038038;28;20071;-57
2022/10/07 15:54:54;;;;;;;5.22;3.63;;;;;;;;;;5075122;28;20039;-57
2022/10/07 15:57:35;;;;;;;4.88;4.10;;;;;;;;;;5068511;28;20499;-58
2022/10/07 16:03:06;;;;;;;4.45;3.78;;;;;;;;;;5090315;28;20028;-58
2022/10/07 16:05:50;;;;;;;5.88;4.43;;;;;;;;;;5119404;28;20084;-57
2022/10/07 16:08:40;;;;;;;4.65;4.15;;;;;;;;;;5102362;28;20119;-58
2022/10/07 16:14:21;;;;;;;7.53;3.80;;;;;;;;;;5080356;28;20028;-58
2022/10/07 16:20:04;;;;;;;4.45;3.63;;;;;;;;;;5119848;28;20096;-58
2022/10/07 16:25:32;;;;;;;4.88;3.85;;;;;;;;;;5105039;28;20438;-56
2022/10/07 16:31:25;;;;;;;4.20;3.80;;;;;;;;;;5119778;28;20030;-58
2022/10/07 16:34:02;;;;;;;7.35;4.32;;;;;;;;;;5109120;28;20079;-57
2022/10/07 16:36:34;;;;;;;9.57;4.95;;;;;;;;;;5119483;28;20430;-58
2022/10/07 16:39:31;;;;;;;5.63;4.40;;;;;;;;;;5101808;28;20104;-58
2022/10/07 16:42:00;;;;;;;4.57;3.95;;;;;;;;;;5104047;28;20016;-58
2022/10/07 16:45:00;;;;;;;4.60;3.97;;;;;;;;;;5113702;28;20039;-58
2022/10/07 16:48:02;;;;;;;5.25;3.85;;;;;;;;;;5084084;28;20042;-57
2022/10/07 16:50:30;;;;;;;5.32;4.30;;;;;;;;;;5142754;27;20130;-58
2022/10/07 16:56:13;;;;;;;9.38;7.22;;;;;;;;;;5130010;27;20034;-58
2022/10/07 16:59:10;;;;;;;6.28;5.10;;;;;;;;;;5143858;27;20080;-58
2022/10/07 17:02:08;;;;;;;6.25;5.03;;;;;;;;;;5144169;27;20456;-58
2022/10/07 17:04:44;;;;;;;5.88;5.25;;;;;;;;;;5144285;27;20453;-59
2022/10/07 17:13:27;;;;;;;5.95;4.22;;;;;;;;;;5105295;27;20088;-60
2022/10/07 17:16:25;;;;;;;7.07;4.88;;;;;;;;;;5144021;27;20015;-58
2022/10/07 17:21:58;;;;;;;6.53;5.93;;;;;;;;;;5143830;27;20072;-58
2022/10/07 17:24:25;;;;;;;8.98;7.68;;;;;;;;;;5144063;27;20073;-58
2022/10/07 17:33:15;;;;;;;6.78;5.68;;;;;;;;;;5053973;28;20502;-58
2022/10/07 17:38:53;;;;;;;6.32;5.50;;;;;;;;;;5123333;27;20448;-58
2022/10/07 17:41:45;;;;;;;6.18;5.53;;;;;;;;;;5094713;28;20032;-58
2022/10/07 17:47:31;;;;;;;11.20;10.15;;;;;;;;;;5089303;28;20050;-58
2022/10/07 17:50:11;;;;;;;12.73;11.07;;;;;;;;;;5082321;28;20056;-58
2022/10/07 17:52:43;;;;;;;8.57;7.68;;;;;;;;;;5093954;28;20228;-58
2022/10/07 17:55:23;;;;;;;;;;;;;;;;;;;;;
2022/10/07 17:57:55;;;;;;;8.38;7.50;;;;;;;;;;5090308;28;20095;-57
2022/10/07 18:00:58;;;;;;;14.02;9.20;;;;;;;;;;5093683;28;20454;-58
2022/10/07 18:03:26;;;;;;;11.45;10.25;;;;;;;;;;5077093;28;20125;-58
2022/10/07 18:06:02;;;;;;;8.90;7.95;;;;;;;;;;5093743;28;20031;-58
2022/10/07 18:09:02;;;;;;;11.77;7.85;;;;;;;;;;5094520;28;20028;-57
2022/10/07 18:17:43;;;;;;;8.10;6.78;;;;;;;;;;5137109;27;20035;-58
2022/10/07 18:20:40;;;;;;;9.18;6.18;;;;;;;;;;5137072;27;20450;-58
2022/10/07 18:26:19;;;;;;;7.97;7.27;;;;;;;;;;5091787;28;20032;-59
2022/10/07 18:31:43;;;;;;;7.47;6.72;;;;;;;;;;5093466;28;20036;-58
2022/10/07 18:37:58;;;;;;;5.63;5.13;;;;;;;;;;5093593;28;20497;-58
2022/10/07 18:43:57;;;;;;;9.88;6.72;;;;;;;;;;5093925;28;20071;-58
2022/10/07 18:49:55;;;;;;;9.93;6.57;;;;;;;;;;5023473;28;20495;-56
2022/10/07 18:53:03;;;;;;;8.93;6.78;;;;;;;;;;4982477;28;20054;-58
2022/10/07 18:55:40;;;;;;;7.72;7.03;;;;;;;;;;5063794;28;20082;-58
2022/10/07 18:58:38;;;;;;;6.93;6.15;;;;;;;;;;5076674;28;20492;-58
2022/10/07 19:01:26;;;;;;;6.80;6.20;;;;;;;;;;5060490;28;20470;-58
2022/10/07 19:04:21;;;;;;;7.85;6.32;;;;;;;;;;5071961;28;20028;-58
2022/10/07 19:07:12;;;;;;;8.70;6.72;;;;;;;;;;5091504;28;20035;-58
2022/10/07 19:10:20;;;;;;;7.85;6.70;;;;;;;;;;5097028;28;20051;-58
2022/10/07 19:16:07;;;;;;;7.82;6.47;;;;;;;;;;5114502;28;20034;-58
2022/10/07 19:18:41;;;;;;;8.68;6.55;;;;;;;;;;5087057;28;20096;-58
2022/10/07 19:21:34;;;;;;;10.20;8.60;;;;;;;;;;5091483;28;20032;-58
2022/10/07 19:27:00;;;;;;;13.70;9.02;;;;;;;;;;5115237;28;20039;-58
2022/10/07 19:29:36;;;;;;;9.82;8.90;;;;;;;;;;5096150;28;20067;-57
2022/10/07 19:32:13;;;;;;;10.75;7.28;;;;;;;;;;5114110;28;20024;-58
2022/10/07 19:35:09;;;;;;;8.60;7.00;;;;;;;;;;5115099;28;20027;-58
2022/10/07 19:37:46;;;;;;;8.65;7.05;;;;;;;;;;5078022;28;20039;-58
2022/10/07 19:40:28;;;;;;;9.55;6.25;;;;;;;;;;5115327;28;20063;-57
2022/10/07 19:43:37;;;;;;;6.88;6.20;;;;;;;;;;5114908;28;20034;-58
2022/10/07 19:46:46;;;;;;;11.38;7.75;;;;;;;;;;5115743;28;20383;-58
2022/10/07 19:52:17;;;;;;;9.50;7.57;;;;;;;;;;5123607;28;20070;-58
2022/10/07 19:59:20;;;;;;;7.50;6.35;;;;;;;;;;4992053;28;20063;-57
2022/10/07 20:01:52;;;;;;;17.65;8.55;;;;;;;;;;5020007;28;20033;-58
2022/10/07 20:05:08;;;;;;;14.82;8.07;;;;;;;;;;5032054;28;20033;-59
2022/10/07 20:07:56;;;;;;;9.48;8.55;;;;;;;;;;5054369;28;20085;-58
2022/10/07 20:13:39;;;;;;;9.50;7.65;;;;;;;;;;5071648;28;20037;-58
2022/10/07 20:16:08;;;;;;;7.07;6.10;;;;;;;;;;5122587;28;20043;-57
2022/10/07 20:18:54;;;;;;;7.90;6.97;;;;;;;;;;5135069;28;20088;-58
2022/10/07 20:21:23;;;;;;;7.88;7.07;;;;;;;;;;5134482;27;20473;-58
2022/10/07 20:23:53;;;;;;;10.13;7.63;;;;;;;;;;5138482;27;20488;-58
2022/10/07 20:26:48;;;;;;;8.70;6.47;;;;;;;;;;5139588;27;20034;-58
2022/10/07 20:29:55;;;;;;;7.60;6.78;;;;;;;;;;5076977;27;20438;-58
2022/10/07 20:32:16;;;;;;;9.05;7.72;;;;;;;;;;5134992;27;20476;-57
2022/10/07 20:38:09;;;;;;;8.02;7.22;;;;;;;;;;5139248;27;20068;-58
2022/10/07 20:43:52;;;;;;;9.77;6.90;;;;;;;;;;5139785;27;20062;-58
2022/10/07 20:46:36;;;;;;;;;;;;;;;;;;;;;
2022/10/07 20:49:41;;;;;;;9.73;8.73;;;;;;;;;;5133487;27;20057;-58
2022/10/07 20:52:33;;;;;;;13.95;8.48;;;;;;;;;;5096344;28;20556;-58
2022/10/07 20:55:25;;;;;;;8.93;8.02;;;;;;;;;;5072147;28;20040;-58
2022/10/07 20:58:25;;;;;;;9.02;8.10;;;;;;;;;;5096603;28;20032;-58
2022/10/07 21:01:27;;;;;;;;;;;;;;;;;;;;;
2022/10/07 21:04:27;;;;;;;9.45;8.45;;;;;;;;;;5081234;28;20136;-57
2022/10/07 21:07:22;;;;;;;7.95;7.07;;;;;;;;;;5105375;28;20116;-57
2022/10/07 21:10:18;;;;;;;12.23;8.30;;;;;;;;;;5102893;28;20050;-58
2022/10/07 21:16:06;;;;;;;8.45;7.00;;;;;;;;;;5044838;28;20036;-58
2022/10/07 21:18:41;;;;;;;9.35;8.35;;;;;;;;;;5089185;28;20039;-58
2022/10/07 21:21:28;;;;;;;8.00;7.20;;;;;;;;;;5104634;28;20030;-58
2022/10/07 21:24:07;;;;;;;;;;;;;;;;;;;;;
2022/10/07 21:27:23;;;;;;;;;;;;;;;;;;;;;
2022/10/07 21:33:51;;;;;;;10.23;7.97;;;;;;;;;;4945879;29;20042;-58
2022/10/07 21:36:46;;;;;;;9.77;8.25;;;;;;;;;;4965648;29;20027;-58
2022/10/07 21:42:19;;;;;;;11.50;10.40;;;;;;;;;;5042012;28;20041;-58
2022/10/07 21:45:03;;;;;;;9.88;8.55;;;;;;;;;;5044954;28;20038;-58
2022/10/07 21:47:40;;;;;;;9.27;7.97;;;;;;;;;;5044668;28;20037;-58
2022/10/07 21:50:30;;;;;;;13.80;10.07;;;;;;;;;;5070727;27;20071;-59
2022/10/07 21:53:18;;;;;;;12.02;9.35;;;;;;;;;;5110832;27;20485;-58
2022/10/07 21:56:01;;;;;;;;;;;;;;;;;;;;;
2022/10/07 21:58:37;;;;;;;9.98;8.95;;;;;;;;;;5108185;27;20062;-58
2022/10/07 22:01:07;;;;;;;11.40;9.75;;;;;;;;;;5147802;27;20092;-58
2022/10/07 22:03:39;;;;;;;;;;;;;;;;;;5148613;27;20034;-58
2022/10/07 22:18:17;;;;;;;11.32;9.68;;;;;;;;;;5146895;27;20053;-58
2022/10/07 22:21:09;;;;;;;9.32;8.38;;;;;;;;;;5147326;27;20115;-57
2022/10/07 22:33:42;;;;;;;16.33;10.05;;;;;;;;;;5070284;27;20030;-58
2022/10/07 22:36:42;;;;;;;;;;;;;;;;;;;;;
2022/10/07 22:39:43;;;;;;;;;;;;;;;;;;;;;
2022/10/07 22:42:48;;;;;;;13.65;9.95;;;;;;;;;;4994459;28;20098;-58
2022/10/07 22:45:51;;;;;;;12.10;8.77;;;;;;;;;;4963652;28;20055;-58
2022/10/07 22:48:57;;;;;;;9.70;8.07;;;;;;;;;;4964490;28;20475;-58
2022/10/07 22:51:56;;;;;;;14.32;9.05;;;;;;;;;;4964013;28;20047;-58
2022/10/07 22:55:02;;;;;;;10.13;9.10;;;;;;;;;;4964610;29;20027;-58
2022/10/07 23:01:12;;;;;;;10.00;8.10;;;;;;;;;;4928197;29;20078;-58
2022/10/07 23:07:05;;;;;;;;;;;;;;;;;;;;;
2022/10/07 23:10:01;;;;;;;9.07;7.95;;;;;;;;;;5022132;28;20102;-58
2022/10/07 23:12:44;;;;;;;10.32;8.43;;;;;;;;;;5005937;28;20034;-58
2022/10/07 23:15:16;;;;;;;10.57;9.40;;;;;;;;;;5023369;28;20069;-58
2022/10/07 23:18:10;;;;;;;13.55;8.77;;;;;;;;;;5023124;28;20065;-58
2022/10/07 23:20:49;;;;;;;12.60;9.25;;;;;;;;;;5025945;28;20085;-58
2022/10/07 23:23:40;;;;;;;11.05;9.73;;;;;;;;;;5042755;28;20033;-58
2022/10/07 23:29:28;;;;;;;16.35;9.82;;;;;;;;;;5082641;28;20066;-58
2022/10/07 23:32:28;;;;;;;;;;;;;;;;;;;;;
2022/10/07 23:35:13;;;;;;;10.75;9.45;;;;;;;;;;5082384;28;20121;-58
2022/10/07 23:38:05;;;;;;;12.35;11.05;;;;;;;;;;5082900;28;20029;-58
2022/10/07 23:40:40;;;;;;;12.40;11.10;;;;;;;;;;5048868;28;20032;-58
2022/10/07 23:43:30;;;;;;;13.50;11.98;;;;;;;;;;5082696;28;20036;-58
2022/10/07 23:50:06;;;;;;;13.80;11.82;;;;;;;;;;5104834;28;20055;-58
2022/10/07 23:52:30;;;;;;;14.02;10.80;;;;;;;;;;5111032;28;20256;-58
2022/10/07 23:55:05;;;;;;;12.18;10.88;;;;;;;;;;5123521;28;20042;-58